Time;durP1;ratioP1;P1;durP2;ratioP2;P2;SDS_P1;SDS_P2;PMS_P1;PMS_P2;Temp;Humidity;BMP_temperature;BMP_pressure;BME280_temperature;BME280_humidity;BME280_pressure;Samples;Min_cycle;Max_cycle;Signal;HPM_P1;HPM_P2
2022/11/17 00:00:17;;;;;;;43.47;22.92;;;8.10;99.90;;;;;;5030076;28;20049;-81
2022/11/17 00:02:44;;;;;;;44.55;24.42;;;8.20;99.90;;;;;;5022205;28;20041;-82
2022/11/17 00:05:10;;;;;;;40.72;24.02;;;8.20;99.90;;;;;;5051521;28;20041;-81
2022/11/17 00:07:35;;;;;;;44.30;24.13;;;8.20;99.90;;;;;;5041144;28;20501;-86
2022/11/17 00:10:01;;;;;;;39.75;22.77;;;8.20;99.90;;;;;;5027890;28;20573;-81
2022/11/17 00:15:11;;;;;;;35.75;22.33;;;8.20;99.90;;;;;;5054638;28;20037;-81
2022/11/17 00:17:37;;;;;;;43.33;23.33;;;8.10;99.90;;;;;;5037128;28;20033;-81
2022/11/17 00:22:47;;;;;;;32.70;21.15;;;8.20;99.90;;;;;;5037382;28;20536;-82
2022/11/17 00:25:13;;;;;;;32.33;21.63;;;8.10;99.90;;;;;;5034971;28;20125;-82
2022/11/17 00:27:38;;;;;;;30.10;19.67;;;8.10;99.90;;;;;;5024067;28;20486;-80
2022/11/17 00:30:05;;;;;;;31.85;20.17;;;8.20;99.90;;;;;;5004641;28;20049;-81
2022/11/17 00:35:15;;;;;;;32.80;20.55;;;8.20;99.90;;;;;;5051901;28;20057;-82
2022/11/17 00:38:14;;;;;;;33.75;20.55;;;8.20;99.90;;;;;;5040692;28;20387;-81
2022/11/17 00:40:26;;;;;;;34.80;21.20;;;8.20;99.90;;;;;;5039206;28;20045;-81
2022/11/17 00:42:52;;;;;;;30.38;21.45;;;8.20;99.90;;;;;;5049019;28;20063;-81
2022/11/17 00:45:17;;;;;;;34.33;21.30;;;8.30;99.90;;;;;;5034678;28;20037;-81
2022/11/17 00:47:43;;;;;;;31.13;21.00;;;8.20;99.90;;;;;;5028038;28;20100;-81
2022/11/17 00:50:09;;;;;;;31.50;21.10;;;8.20;99.90;;;;;;5030089;28;20175;-81
2022/11/17 00:52:35;;;;;;;30.83;20.55;;;8.20;99.90;;;;;;5030325;28;20053;-84
2022/11/17 00:55:01;;;;;;;31.08;21.65;;;8.20;99.90;;;;;;5044237;28;20055;-82
2022/11/17 00:57:26;;;;;;;27.52;20.00;;;8.20;99.90;;;;;;5032896;28;20072;-83
2022/11/17 00:59:52;;;;;;;28.58;21.10;;;8.20;99.90;;;;;;5050076;28;20041;-81
2022/11/17 01:02:18;;;;;;;29.33;19.95;;;8.20;99.90;;;;;;5015872;28;20041;-82
2022/11/17 01:04:43;;;;;;;29.23;19.42;;;8.30;99.90;;;;;;5033271;28;20124;-81
2022/11/17 01:07:09;;;;;;;32.55;20.70;;;8.20;99.90;;;;;;5024742;28;20048;-81
2022/11/17 01:09:35;;;;;;;30.05;20.80;;;8.20;99.90;;;;;;5027021;28;20049;-81
2022/11/17 01:12:00;;;;;;;31.05;19.45;;;8.20;99.90;;;;;;5026720;28;20457;-82
2022/11/17 01:14:28;;;;;;;30.38;19.20;;;8.20;99.90;;;;;;5054063;28;20037;-81
2022/11/17 01:16:54;;;;;;;27.55;19.13;;;8.20;99.90;;;;;;5062471;28;20114;-80
2022/11/17 01:19:21;;;;;;;27.48;18.85;;;8.20;99.90;;;;;;5035454;28;20541;-81
2022/11/17 01:21:47;;;;;;;27.65;18.92;;;8.20;99.90;;;;;;5033781;28;20040;-84
2022/11/17 01:24:15;;;;;;;27.85;18.42;;;8.20;99.90;;;;;;5050123;28;20398;-80
2022/11/17 01:26:41;;;;;;;25.23;18.23;;;8.30;99.90;;;;;;5037560;28;20061;-80
2022/11/17 01:29:08;;;;;;;25.98;17.70;;;8.20;99.90;;;;;;5042905;28;20045;-83
2022/11/17 01:31:37;;;;;;;28.73;17.70;;;8.20;99.90;;;;;;5052675;28;20477;-80
2022/11/17 01:34:03;;;;;;;26.45;17.45;;;8.20;99.90;;;;;;5054968;28;20052;-81
2022/11/17 01:39:16;;;;;;;27.13;18.02;;;8.10;99.90;;;;;;5064658;28;20527;-80
2022/11/17 01:41:41;;;;;;;28.05;18.38;;;8.20;99.90;;;;;;5069982;28;20045;-80
2022/11/17 01:44:43;;;;;;;25.95;18.63;;;8.20;99.90;;;;;;5038815;28;20049;-81
2022/11/17 01:47:21;;;;;;;28.48;18.08;;;8.20;99.90;;;;;;5030895;28;20498;-81
2022/11/17 01:49:50;;;;;;;22.70;16.40;;;8.20;99.90;;;;;;5046449;28;20052;-82
2022/11/17 01:52:16;;;;;;;24.35;17.52;;;8.20;99.90;;;;;;5046163;28;20080;-81
2022/11/17 01:54:44;;;;;;;25.63;17.00;;;8.20;99.90;;;;;;5034071;28;20674;-82
2022/11/17 01:57:21;;;;;;;26.83;16.88;;;8.20;99.90;;;;;;5040586;28;20037;-83
2022/11/17 01:59:56;;;;;;;26.92;17.77;;;8.20;99.90;;;;;;5066424;28;20051;-81
2022/11/17 02:02:22;;;;;;;25.05;17.52;;;8.20;99.90;;;;;;5038234;28;20520;-86
2022/11/17 02:05:26;;;;;;;24.73;17.45;;;8.20;99.90;;;;;;5039602;28;20048;-82
2022/11/17 02:07:54;;;;;;;24.08;17.58;;;8.20;99.90;;;;;;5029954;28;20518;-81
2022/11/17 02:10:20;;;;;;;26.48;17.65;;;8.20;99.90;;;;;;5036942;28;20061;-81
2022/11/17 02:12:47;;;;;;;22.65;16.02;;;8.30;99.90;;;;;;5054459;28;20067;-81
2022/11/17 02:15:13;;;;;;;24.02;16.08;;;8.20;99.90;;;;;;5067443;28;20106;-81
2022/11/17 02:17:41;;;;;;;25.17;16.48;;;8.20;99.90;;;;;;5062524;28;20069;-81
2022/11/17 02:20:29;;;;;;;24.00;17.30;;;8.20;99.90;;;;;;5043464;28;20071;-83
2022/11/17 02:23:27;;;;;;;22.67;16.23;;;8.20;99.90;;;;;;5032377;28;20091;-81
2022/11/17 02:26:11;;;;;;;26.70;18.35;;;8.20;99.90;;;;;;4996810;28;20520;-81
2022/11/17 02:28:57;;;;;;;29.67;18.20;;;8.10;99.90;;;;;;5049415;28;20068;-81
2022/11/17 02:31:51;;;;;;;29.77;17.85;;;8.00;99.90;;;;;;5061110;28;20101;-81
2022/11/17 02:34:47;;;;;;;27.90;18.00;;;7.90;99.90;;;;;;5061195;28;20048;-82
2022/11/17 02:37:31;;;;;;;29.17;18.77;;;7.90;99.90;;;;;;5041652;28;20048;-81
2022/11/17 02:40:07;;;;;;;31.40;19.38;;;7.90;99.90;;;;;;5031157;28;20143;-81
2022/11/17 02:45:32;;;;;;;32.83;20.63;;;7.80;99.90;;;;;;5053638;28;20498;-81
2022/11/17 02:48:01;;;;;;;30.98;19.17;;;7.70;99.90;;;;;;5033597;28;20089;-83
2022/11/17 02:50:28;;;;;;;34.47;21.55;;;7.70;99.90;;;;;;5049643;28;20087;-81
2022/11/17 02:52:54;;;;;;;37.88;21.35;;;7.70;99.90;;;;;;5030622;28;20120;-81
2022/11/17 02:55:20;;;;;;;36.10;22.17;;;7.70;99.90;;;;;;5029874;28;20132;-82
2022/11/17 02:57:45;;;;;;;35.20;21.20;;;7.70;99.90;;;;;;4999303;28;20412;-79
2022/11/17 03:00:14;;;;;;;36.88;21.88;;;7.60;99.90;;;;;;5040543;28;20049;-79
2022/11/17 03:03:04;;;;;;;38.25;22.25;;;7.60;99.90;;;;;;5039683;28;20052;-81
2022/11/17 03:06:07;;;;;;;38.80;21.17;;;7.60;99.90;;;;;;5045080;28;20162;-83
2022/11/17 03:08:47;;;;;;;39.42;22.38;;;7.60;99.90;;;;;;5020913;28;20055;-81
2022/11/17 03:11:13;;;;;;;45.60;23.92;;;7.60;99.90;;;;;;5042465;28;20069;-81
2022/11/17 03:13:52;;;;;;;37.90;21.90;;;7.60;99.90;;;;;;5054302;28;20087;-80
2022/11/17 03:16:35;;;;;;;45.03;24.38;;;7.50;99.90;;;;;;5042839;28;20049;-80
2022/11/17 03:19:17;;;;;;;39.78;23.45;;;7.50;99.90;;;;;;5051957;28;20041;-80
2022/11/17 03:21:49;;;;;;;43.28;24.17;;;7.50;99.90;;;;;;5047479;28;20044;-82
2022/11/17 03:24:22;;;;;;;46.88;25.02;;;7.50;99.90;;;;;;5036867;28;20490;-81
2022/11/17 03:26:54;;;;;;;42.65;23.92;;;7.50;99.90;;;;;;5041014;28;20425;-80
2022/11/17 03:29:23;;;;;;;47.55;25.70;;;7.50;99.90;;;;;;5030739;28;20049;-80
2022/11/17 03:31:55;;;;;;;44.75;23.98;;;7.50;99.90;;;;;;5033246;28;20124;-80
2022/11/17 03:34:24;;;;;;;48.75;25.42;;;7.40;99.90;;;;;;5047401;28;20478;-79
2022/11/17 03:36:57;;;;;;;51.00;25.30;;;7.40;99.90;;;;;;5032954;28;20406;-81
2022/11/17 03:39:30;;;;;;;46.10;23.63;;;7.40;99.90;;;;;;5038864;28;20103;-80
2022/11/17 03:42:01;;;;;;;47.00;24.50;;;7.40;99.90;;;;;;5047596;28;20037;-80
2022/11/17 03:44:28;;;;;;;43.33;24.17;;;7.40;99.90;;;;;;5028402;28;20041;-81
2022/11/17 03:46:56;;;;;;;57.17;26.38;;;7.40;99.90;;;;;;5021438;28;20040;-81
2022/11/17 03:50:00;;;;;;;45.53;24.45;;;7.40;99.90;;;;;;5052719;28;20083;-82
2022/11/17 03:52:28;;;;;;;46.38;24.45;;;7.40;99.90;;;;;;5005445;28;20068;-81
2022/11/17 03:54:54;;;;;;;51.30;24.95;;;7.40;99.90;;;;;;5034707;28;20073;-81
2022/11/17 03:57:26;;;;;;;49.15;24.75;;;7.40;99.90;;;;;;5033479;28;20656;-81
2022/11/17 04:00:15;;;;;;;49.78;24.67;;;7.40;99.90;;;;;;5060499;28;20044;-81
2022/11/17 04:02:43;;;;;;;45.72;24.00;;;7.40;99.90;;;;;;5032395;28;20069;-80
2022/11/17 04:05:10;;;;;;;45.55;23.35;;;7.40;99.90;;;;;;5027453;28;20127;-80
2022/11/17 04:07:40;;;;;;;42.67;23.98;;;7.40;99.90;;;;;;5055271;28;20095;-80
2022/11/17 04:10:09;;;;;;;56.88;25.67;;;7.40;99.90;;;;;;5052054;28;20573;-79
2022/11/17 04:18:04;;;;;;;48.47;24.02;;;7.30;99.90;;;;;;5036362;28;20049;-80
2022/11/17 04:20:34;;;;;;;38.15;22.13;;;7.30;99.90;;;;;;5022000;28;20052;-81
2022/11/17 04:23:19;;;;;;;43.63;23.33;;;7.40;99.90;;;;;;5050489;28;20045;-81
2022/11/17 04:28:43;;;;;;;46.03;23.35;;;7.40;99.90;;;;;;5047442;28;20263;-81
2022/11/17 04:31:12;;;;;;;51.78;24.60;;;7.30;99.90;;;;;;5048747;28;20045;-80
2022/11/17 04:33:44;;;;;;;53.80;24.73;;;7.20;99.90;;;;;;5030016;28;20054;-83
2022/11/17 04:36:12;;;;;;;39.70;21.15;;;7.20;99.90;;;;;;5028062;28;20053;-81
2022/11/17 04:38:42;;;;;;;46.55;23.42;;;7.20;99.90;;;;;;5042530;28;20044;-81
2022/11/17 04:43:54;;;;;;;46.97;22.88;;;7.20;99.90;;;;;;5051722;28;20106;-81
2022/11/17 04:46:21;;;;;;;43.38;22.38;;;7.20;99.90;;;;;;5046545;28;20041;-81
2022/11/17 04:48:47;;;;;;;42.30;22.25;;;7.10;99.90;;;;;;5020337;28;20045;-84
2022/11/17 04:51:14;;;;;;;38.58;20.90;;;7.10;99.90;;;;;;5044667;28;20045;-81
2022/11/17 04:53:41;;;;;;;36.97;21.00;;;7.10;99.90;;;;;;5026125;28;20064;-80
2022/11/17 04:56:07;;;;;;;41.92;21.05;;;7.10;99.90;;;;;;5043829;28;20080;-82
2022/11/17 04:58:33;;;;;;;39.30;20.67;;;7.10;99.90;;;;;;5049614;28;20049;-81
2022/11/17 05:01:11;;;;;;;42.80;22.20;;;7.10;99.90;;;;;;5039108;28;20419;-80
2022/11/17 05:04:01;;;;;;;50.05;22.58;;;7.10;99.90;;;;;;5018378;28;20124;-80
2022/11/17 05:06:36;;;;;;;39.33;21.00;;;7.10;99.90;;;;;;5038033;28;20425;-81
2022/11/17 05:09:08;;;;;;;41.75;20.10;;;7.00;99.90;;;;;;5031904;28;20696;-80
2022/11/17 05:14:19;;;;;;;40.22;20.73;;;7.00;99.90;;;;;;5030737;28;20528;-80
2022/11/17 05:17:04;;;;;;;40.35;20.85;;;7.00;99.90;;;;;;5049921;28;20123;-81
2022/11/17 05:19:40;;;;;;;40.55;20.90;;;6.90;99.90;;;;;;5056771;28;20087;-80
2022/11/17 05:24:52;;;;;;;37.38;18.98;;;7.00;99.90;;;;;;5038389;28;20140;-80
2022/11/17 05:27:19;;;;;;;31.00;18.30;;;6.90;99.90;;;;;;5035202;28;20041;-80
2022/11/17 05:29:44;;;;;;;35.05;19.35;;;6.90;99.90;;;;;;5014165;28;20049;-80
2022/11/17 05:32:11;;;;;;;33.22;18.15;;;6.90;99.90;;;;;;5039605;28;20127;-81
2022/11/17 05:34:36;;;;;;;31.38;17.33;;;6.90;99.90;;;;;;5056869;28;20072;-82
2022/11/17 05:37:02;;;;;;;35.25;18.25;;;6.80;99.90;;;;;;5031960;28;20078;-80
2022/11/17 05:39:28;;;;;;;32.58;17.52;;;6.80;99.90;;;;;;5049737;28;20052;-81
2022/11/17 05:41:53;;;;;;;29.73;16.90;;;6.80;99.90;;;;;;5060635;28;20044;-86
2022/11/17 05:44:19;;;;;;;29.55;17.73;;;6.80;99.90;;;;;;5050931;28;20049;-80
2022/11/17 05:46:44;;;;;;;28.05;16.80;;;6.70;99.90;;;;;;5016348;28;20052;-80
2022/11/17 05:49:10;;;;;;;30.00;17.90;;;6.70;99.90;;;;;;5035821;28;20049;-80
2022/11/17 05:51:37;;;;;;;30.05;17.42;;;6.70;99.90;;;;;;5032319;28;20052;-81
2022/11/17 05:54:03;;;;;;;33.45;18.27;;;6.70;99.90;;;;;;5049768;28;20041;-81
2022/11/17 05:56:51;;;;;;;30.27;18.27;;;6.70;99.90;;;;;;5037429;28;20045;-80
2022/11/17 05:59:22;;;;;;;31.25;17.02;;;6.70;99.90;;;;;;5039614;28;20798;-82
2022/11/17 06:02:00;;;;;;;28.05;16.00;;;6.70;99.90;;;;;;5028522;28;20042;-84
2022/11/17 06:04:26;;;;;;;31.25;16.65;;;6.70;99.90;;;;;;5023227;28;20045;-81
2022/11/17 06:06:57;;;;;;;36.75;18.30;;;6.60;99.90;;;;;;5046295;28;20140;-83
2022/11/17 06:09:25;;;;;;;29.23;16.88;;;6.70;99.90;;;;;;5047995;28;20049;-81
2022/11/17 06:11:51;;;;;;;31.42;16.20;;;6.60;99.90;;;;;;5031446;28;20059;-81
2022/11/17 06:14:17;;;;;;;27.58;15.40;;;6.70;99.90;;;;;;4997313;28;20484;-83
2022/11/17 06:16:46;;;;;;;25.38;15.82;;;6.60;99.90;;;;;;5000648;28;20091;-81
2022/11/17 06:19:23;;;;;;;27.52;16.30;;;6.60;99.90;;;;;;5043785;28;20456;-81
2022/11/17 06:21:50;;;;;;;33.58;18.38;;;6.60;99.90;;;;;;5047880;28;20401;-82
2022/11/17 06:24:16;;;;;;;27.50;15.95;;;6.50;99.90;;;;;;5043016;28;20124;-83
2022/11/17 06:26:42;;;;;;;29.90;17.17;;;6.60;99.90;;;;;;5025394;28;20060;-82
2022/11/17 06:29:09;;;;;;;27.60;16.35;;;6.60;99.90;;;;;;5031687;28;20486;-80
2022/11/17 06:31:36;;;;;;;26.02;16.45;;;6.60;99.90;;;;;;5032954;28;20037;-84
2022/11/17 06:34:03;;;;;;;26.73;16.10;;;6.60;99.90;;;;;;5042352;28;20046;-82
2022/11/17 06:36:30;;;;;;;23.02;14.52;;;6.60;99.90;;;;;;5059827;28;20041;-80
2022/11/17 06:38:56;;;;;;;27.88;16.42;;;6.60;99.90;;;;;;5033851;28;20057;-80
2022/11/17 06:41:21;;;;;;;29.52;16.38;;;6.50;99.90;;;;;;5031450;28;20071;-81
2022/11/17 06:43:47;;;;;;;34.08;18.05;;;6.50;99.90;;;;;;5028582;28;20045;-81
2022/11/17 06:46:13;;;;;;;33.88;18.10;;;6.60;99.90;;;;;;5040353;28;20402;-81
2022/11/17 06:48:39;;;;;;;26.13;16.20;;;6.60;99.90;;;;;;5049122;28;20041;-81
2022/11/17 06:51:05;;;;;;;33.63;17.67;;;6.60;99.90;;;;;;5029599;28;20041;-81
2022/11/17 06:53:32;;;;;;;24.30;15.90;;;6.60;99.90;;;;;;5049236;28;20132;-80
2022/11/17 06:56:08;;;;;;;31.55;18.13;;;6.60;99.90;;;;;;5042263;28;20044;-81
2022/11/17 06:58:36;;;;;;;26.50;15.98;;;6.60;99.90;;;;;;5045929;28;20045;-76
2022/11/17 07:01:10;;;;;;;26.77;15.18;;;6.50;99.90;;;;;;5049596;28;20057;-81
2022/11/17 07:03:37;;;;;;;26.10;16.92;;;6.60;99.90;;;;;;5055425;28;20596;-79
2022/11/17 07:06:05;;;;;;;24.30;15.93;;;6.60;99.90;;;;;;5013590;28;20107;-84
2022/11/17 07:08:32;;;;;;;26.33;15.77;;;6.60;99.90;;;;;;5047646;28;20049;-80
2022/11/17 07:11:06;;;;;;;28.65;16.27;;;6.60;99.90;;;;;;5045591;28;20061;-79
2022/11/17 07:13:33;;;;;;;30.08;16.98;;;6.60;99.90;;;;;;5044813;28;20041;-78
2022/11/17 07:16:20;;;;;;;24.98;16.00;;;6.60;99.90;;;;;;5039695;28;20048;-81
2022/11/17 07:18:46;;;;;;;28.98;16.23;;;6.60;99.90;;;;;;5042782;28;20045;-81
2022/11/17 07:21:13;;;;;;;24.75;15.38;;;6.60;99.90;;;;;;5045480;28;20041;-82
2022/11/17 07:23:40;;;;;;;30.13;16.13;;;6.60;99.90;;;;;;5048898;28;20052;-81
2022/11/17 07:26:06;;;;;;;28.45;16.02;;;6.60;99.90;;;;;;5043400;28;20176;-87
2022/11/17 07:28:33;;;;;;;28.45;15.77;;;6.60;99.90;;;;;;5032135;28;20049;-81
2022/11/17 07:31:02;;;;;;;25.50;15.68;;;6.60;99.90;;;;;;5027764;28;20075;-82
2022/11/17 07:33:28;;;;;;;24.13;15.18;;;6.50;99.90;;;;;;5045809;28;20083;-85
2022/11/17 07:35:54;;;;;;;23.52;14.27;;;6.60;99.90;;;;;;5028189;28;20131;-81
2022/11/17 07:38:20;;;;;;;29.90;15.48;;;6.60;99.90;;;;;;5030239;28;20051;-84
2022/11/17 07:40:46;;;;;;;20.65;13.88;;;6.60;99.90;;;;;;5031446;28;20049;-81
2022/11/17 07:43:12;;;;;;;23.85;14.85;;;6.60;99.90;;;;;;5025038;28;20091;-81
2022/11/17 07:45:37;;;;;;;22.80;14.52;;;6.60;99.90;;;;;;5042045;28;20111;-81
2022/11/17 07:48:05;;;;;;;20.95;13.25;;;6.60;99.90;;;;;;5050212;28;20583;-81
2022/11/17 07:50:31;;;;;;;19.20;12.50;;;6.60;99.90;;;;;;5034258;28;20319;-80
2022/11/17 07:52:57;;;;;;;19.42;12.77;;;6.60;99.90;;;;;;5036308;28;20308;-82
2022/11/17 07:55:24;;;;;;;18.20;12.63;;;6.60;99.90;;;;;;5046165;28;20041;-82
2022/11/17 07:57:55;;;;;;;20.55;13.18;;;6.50;99.90;;;;;;5055713;28;20082;-80
2022/11/17 08:00:20;;;;;;;19.52;12.27;;;6.50;99.90;;;;;;5044476;28;20051;-81
2022/11/17 08:02:46;;;;;;;22.52;13.55;;;6.50;99.90;;;;;;5044027;28;20041;-80
2022/11/17 08:05:12;;;;;;;18.30;13.00;;;6.50;99.90;;;;;;5028580;28;20292;-85
2022/11/17 08:07:37;;;;;;;21.77;12.77;;;6.50;99.90;;;;;;5030367;28;20048;-82
2022/11/17 08:10:03;;;;;;;23.00;14.05;;;6.50;99.90;;;;;;5034009;28;20169;-81
2022/11/17 08:12:29;;;;;;;19.52;13.05;;;6.50;99.90;;;;;;5049137;28;20458;-81
2022/11/17 08:14:55;;;;;;;19.40;12.68;;;6.50;99.90;;;;;;5027674;28;20040;-81
2022/11/17 08:17:20;;;;;;;24.90;14.18;;;6.60;99.90;;;;;;5029924;28;20048;-82
2022/11/17 08:19:46;;;;;;;23.05;14.20;;;6.60;99.90;;;;;;5041025;28;20048;-82
2022/11/17 08:22:11;;;;;;;22.38;13.85;;;6.60;99.90;;;;;;5045749;28;20183;-86
2022/11/17 08:24:37;;;;;;;21.27;14.02;;;6.60;99.90;;;;;;5019461;28;20078;-84
2022/11/17 08:27:03;;;;;;;21.85;13.60;;;6.60;99.90;;;;;;5046718;28;20122;-83
2022/11/17 08:29:28;;;;;;;23.40;13.98;;;6.60;99.90;;;;;;5017232;28;20049;-81
2022/11/17 08:31:54;;;;;;;20.65;13.68;;;6.60;99.90;;;;;;5026862;28;20041;-81
2022/11/17 08:34:20;;;;;;;23.33;14.43;;;6.60;99.90;;;;;;5028934;28;20134;-81
2022/11/17 08:36:45;;;;;;;25.75;15.07;;;6.60;99.90;;;;;;5039176;28;20045;-81
2022/11/17 08:39:11;;;;;;;23.27;14.43;;;6.60;99.90;;;;;;5029084;28;20565;-81
2022/11/17 08:41:37;;;;;;;22.02;14.23;;;6.60;99.90;;;;;;5014134;28;20405;-83
2022/11/17 08:44:03;;;;;;;21.42;13.43;;;6.70;99.90;;;;;;5032770;28;20460;-82
2022/11/17 08:46:28;;;;;;;21.15;13.73;;;6.60;99.90;;;;;;5058385;28;20040;-82
2022/11/17 08:48:54;;;;;;;23.52;15.68;;;6.60;99.90;;;;;;5038562;28;20054;-81
2022/11/17 08:51:20;;;;;;;22.25;15.48;;;6.60;99.90;;;;;;5018385;28;20129;-81
2022/11/17 08:53:45;;;;;;;26.15;15.80;;;6.60;99.90;;;;;;5047345;28;20152;-81
2022/11/17 08:56:12;;;;;;;22.90;15.57;;;6.70;99.90;;;;;;5036156;28;20050;-81
2022/11/17 08:58:39;;;;;;;24.35;14.35;;;6.60;99.90;;;;;;5046139;28;20068;-82
2022/11/17 09:01:10;;;;;;;26.27;15.20;;;6.70;99.90;;;;;;5060651;28;20040;-81
2022/11/17 09:03:36;;;;;;;26.40;15.02;;;6.60;99.90;;;;;;5045085;28;20048;-81
2022/11/17 09:06:04;;;;;;;26.05;15.18;;;6.60;99.90;;;;;;5018318;28;20126;-82
2022/11/17 09:08:30;;;;;;;24.75;14.93;;;6.60;99.90;;;;;;5053334;28;20044;-81
2022/11/17 09:10:57;;;;;;;30.05;16.65;;;6.60;99.90;;;;;;5039875;28;20136;-82
2022/11/17 09:13:22;;;;;;;26.77;16.33;;;6.70;99.90;;;;;;5051918;28;20049;-84
2022/11/17 09:15:48;;;;;;;21.65;14.45;;;6.70;99.90;;;;;;5035539;28;20486;-82
2022/11/17 09:18:14;;;;;;;21.55;13.00;;;6.70;99.90;;;;;;5031123;28;20041;-82
2022/11/17 09:20:39;;;;;;;16.83;12.38;;;6.70;99.90;;;;;;5061462;28;20071;-83
2022/11/17 09:23:05;;;;;;;21.17;12.85;;;6.70;99.90;;;;;;5029075;28;20056;-83
2022/11/17 09:25:31;;;;;;;19.58;12.43;;;6.70;99.90;;;;;;5016217;28;20056;-82
2022/11/17 09:27:57;;;;;;;16.95;11.38;;;6.70;99.90;;;;;;5048043;28;20506;-81
2022/11/17 09:30:23;;;;;;;19.00;12.20;;;6.70;99.90;;;;;;5032427;28;20069;-83
2022/11/17 09:32:50;;;;;;;15.98;10.77;;;6.70;99.90;;;;;;5034560;28;20132;-81
2022/11/17 09:35:16;;;;;;;20.33;12.70;;;6.80;99.90;;;;;;5053185;28;20421;-81
2022/11/17 09:37:42;;;;;;;15.90;10.98;;;6.80;99.90;;;;;;5046823;28;20045;-81
2022/11/17 09:40:18;;;;;;;18.08;11.52;;;6.80;99.90;;;;;;5039550;28;20045;-81
2022/11/17 09:42:44;;;;;;;14.85;10.82;;;6.80;99.90;;;;;;5047139;28;20041;-84
2022/11/17 09:45:19;;;;;;;15.25;10.45;;;6.90;99.90;;;;;;5039475;28;20045;-81
2022/11/17 09:47:56;;;;;;;23.70;12.38;;;6.80;99.90;;;;;;5063735;28;20051;-82
2022/11/17 09:50:30;;;;;;;14.55;10.88;;;6.80;99.90;;;;;;5035824;28;20073;-81
2022/11/17 09:53:23;;;;;;;14.43;10.38;;;6.80;99.90;;;;;;5037371;28;20128;-81
2022/11/17 09:55:59;;;;;;;16.70;10.85;;;6.80;99.90;;;;;;5050116;28;20490;-81
2022/11/17 09:59:03;;;;;;;14.30;10.38;;;6.80;99.90;;;;;;5033516;28;20049;-82
2022/11/17 10:01:29;;;;;;;17.70;10.55;;;6.80;99.90;;;;;;5029214;28;20187;-83
2022/11/17 10:03:57;;;;;;;16.08;10.80;;;6.80;99.90;;;;;;5043125;28;20040;-81
2022/11/17 10:06:29;;;;;;;16.30;10.75;;;6.80;99.90;;;;;;5033737;28;20045;-82
2022/11/17 10:09:16;;;;;;;14.30;9.70;;;6.80;99.90;;;;;;5041517;28;20576;-81
2022/11/17 10:11:43;;;;;;;18.75;11.10;;;6.90;99.90;;;;;;5027949;28;20054;-80
2022/11/17 10:14:14;;;;;;;14.82;10.30;;;6.90;99.90;;;;;;5021894;28;20479;-81
2022/11/17 10:16:56;;;;;;;18.42;11.52;;;6.90;99.90;;;;;;5043542;28;20053;-83
2022/11/17 10:19:30;;;;;;;16.92;10.80;;;7.00;99.90;;;;;;5044303;28;20060;-81
2022/11/17 10:22:02;;;;;;;18.20;11.50;;;7.00;99.90;;;;;;5024601;28;20449;-81
2022/11/17 10:24:38;;;;;;;18.83;12.00;;;7.00;99.90;;;;;;5047261;28;20053;-85
2022/11/17 10:27:16;;;;;;;15.90;11.20;;;7.00;99.90;;;;;;5033086;28;20502;-82
2022/11/17 10:29:55;;;;;;;13.90;9.95;;;7.00;99.90;;;;;;5029151;28;20618;-85
2022/11/17 10:32:21;;;;;;;17.08;10.07;;;7.00;99.90;;;;;;5027534;28;20136;-80
2022/11/17 10:34:47;;;;;;;13.07;9.60;;;7.00;99.90;;;;;;5046429;28;20132;-83
2022/11/17 10:37:13;;;;;;;15.38;10.27;;;7.00;99.90;;;;;;5038558;28;20048;-80
2022/11/17 10:39:41;;;;;;;16.10;9.95;;;7.00;99.90;;;;;;5058910;28;20052;-80
2022/11/17 10:42:20;;;;;;;16.63;9.93;;;6.90;99.90;;;;;;5038718;28;20111;-80
2022/11/17 10:44:52;;;;;;;15.30;9.68;;;7.00;99.90;;;;;;5044463;28;20073;-80
2022/11/17 10:47:38;;;;;;;17.27;10.63;;;7.00;99.90;;;;;;5044571;28;20390;-80
2022/11/17 10:50:17;;;;;;;16.35;9.70;;;7.00;99.90;;;;;;5042290;28;20142;-81
2022/11/17 10:52:43;;;;;;;13.68;8.65;;;7.00;99.90;;;;;;5046124;28;20095;-80
2022/11/17 10:55:27;;;;;;;15.82;9.48;;;7.00;99.90;;;;;;5036177;28;20776;-80
2022/11/17 10:58:14;;;;;;;16.05;9.43;;;6.90;99.90;;;;;;5026911;28;20048;-79
2022/11/17 11:00:50;;;;;;;14.98;9.20;;;7.00;99.90;;;;;;5041266;28;20110;-83
2022/11/17 11:03:24;;;;;;;15.43;8.10;;;7.00;99.90;;;;;;5030419;28;20060;-82
2022/11/17 11:06:21;;;;;;;13.75;8.60;;;7.00;99.90;;;;;;5040226;28;20037;-82
2022/11/17 11:08:53;;;;;;;;;;;7.00;99.90;;;;;;5032245;28;20061;-81
2022/11/17 11:11:47;;;;;;;14.63;8.65;;;7.00;99.90;;;;;;5016575;28;20289;-82
2022/11/17 11:15:04;;;;;;;13.18;8.15;;;7.00;99.90;;;;;;5056770;28;20068;-83
2022/11/17 11:17:29;;;;;;;14.77;8.90;;;7.10;99.90;;;;;;4981442;28;20136;-82
2022/11/17 11:19:56;;;;;;;13.95;9.10;;;7.10;99.90;;;;;;5028237;28;20171;-83
2022/11/17 11:22:44;;;;;;;11.60;8.07;;;7.10;99.90;;;;;;5046678;28;20106;-82
2022/11/17 11:25:41;;;;;;;12.15;8.00;;;7.10;99.90;;;;;;5032617;28;20052;-82
2022/11/17 11:28:13;;;;;;;14.50;8.13;;;7.10;99.90;;;;;;5055659;28;20123;-82
2022/11/17 11:31:01;;;;;;;10.88;7.68;;;7.10;99.90;;;;;;5031664;28;20168;-85
2022/11/17 11:33:43;;;;;;;15.18;8.38;;;7.10;99.90;;;;;;4985357;28;20052;-83
2022/11/17 11:36:35;;;;;;;12.88;7.35;;;7.10;99.90;;;;;;5050090;28;20084;-82
2022/11/17 11:39:21;;;;;;;14.07;8.68;;;7.20;99.90;;;;;;5030645;28;20086;-81
2022/11/17 11:41:50;;;;;;;14.43;8.05;;;7.20;99.90;;;;;;5040647;28;20451;-83
2022/11/17 11:44:22;;;;;;;14.88;8.68;;;7.30;99.90;;;;;;5047785;28;20049;-81
2022/11/17 11:47:16;;;;;;;15.82;9.13;;;7.20;99.90;;;;;;5051635;28;20098;-79
2022/11/17 11:50:14;;;;;;;15.40;8.80;;;7.20;99.90;;;;;;5052173;28;20494;-81
2022/11/17 11:52:46;;;;;;;16.15;9.52;;;7.30;99.90;;;;;;5051523;28;20053;-85
2022/11/17 11:55:23;;;;;;;18.55;9.57;;;7.30;99.90;;;;;;5051879;28;20053;-82
2022/11/17 11:58:05;;;;;;;15.48;9.48;;;7.30;99.90;;;;;;5065827;28;20135;-79
2022/11/17 12:00:32;;;;;;;18.25;9.93;;;7.30;99.90;;;;;;5053523;28;20055;-79
2022/11/17 12:03:24;;;;;;;19.42;10.15;;;7.40;99.90;;;;;;5067409;28;20429;-79
2022/11/17 12:09:19;;;;;;;18.52;9.55;;;7.40;99.90;;;;;;5056175;28;20127;-79
2022/11/17 12:12:02;;;;;;;21.92;10.25;;;7.40;99.90;;;;;;5054973;28;20520;-79
2022/11/17 12:14:36;;;;;;;15.60;9.02;;;7.40;99.90;;;;;;5047030;28;20136;-79
2022/11/17 12:17:24;;;;;;;15.77;9.45;;;7.40;99.90;;;;;;5044506;28;20711;-80
2022/11/17 12:19:54;;;;;;;14.85;9.40;;;7.40;99.90;;;;;;5047704;28;20391;-81
2022/11/17 12:22:38;;;;;;;14.95;9.07;;;7.40;99.90;;;;;;5047776;28;20423;-81
2022/11/17 12:25:29;;;;;;;17.60;9.82;;;7.50;99.90;;;;;;5054673;28;20119;-79
2022/11/17 12:27:55;;;;;;;17.42;10.18;;;7.60;99.90;;;;;;5063335;28;20498;-79
2022/11/17 12:30:29;;;;;;;28.73;11.25;;;7.60;99.90;;;;;;5060131;28;20040;-81
2022/11/17 12:32:56;;;;;;;15.18;8.73;;;7.60;99.90;;;;;;5028494;28;20094;-79
2022/11/17 12:35:27;;;;;;;16.77;9.90;;;7.60;99.90;;;;;;5061248;28;20121;-80
2022/11/17 12:38:15;;;;;;;16.50;9.43;;;7.60;99.90;;;;;;5054254;28;20040;-80
2022/11/17 12:40:44;;;;;;;17.92;10.05;;;7.70;99.90;;;;;;5068466;28;20049;-80
2022/11/17 12:43:22;;;;;;;17.70;9.93;;;7.70;99.90;;;;;;5071093;28;20131;-78
2022/11/17 12:45:57;;;;;;;17.77;9.75;;;7.70;99.90;;;;;;5066211;28;20487;-80
2022/11/17 12:48:26;;;;;;;15.32;8.85;;;7.70;99.90;;;;;;5035750;28;20186;-81
2022/11/17 12:50:59;;;;;;;16.77;9.40;;;7.80;99.90;;;;;;5050590;28;20379;-80
2022/11/17 12:53:31;;;;;;;17.60;9.27;;;7.80;99.90;;;;;;5051940;28;20847;-82
2022/11/17 12:56:09;;;;;;;15.75;9.27;;;8.00;99.90;;;;;;5048729;28;20053;-79
2022/11/17 12:58:47;;;;;;;18.00;9.65;;;8.00;99.90;;;;;;5046216;28;20486;-80
2022/11/17 13:01:29;;;;;;;15.40;9.27;;;8.00;99.90;;;;;;5048339;28;20052;-82
2022/11/17 13:04:04;;;;;;;15.50;9.82;;;8.00;99.90;;;;;;5050404;28;20085;-79
2022/11/17 13:06:29;;;;;;;22.88;10.80;;;8.10;99.90;;;;;;5050229;28;20045;-78
2022/11/17 13:09:00;;;;;;;18.88;10.45;;;8.10;99.90;;;;;;5042035;28;20099;-79
2022/11/17 13:11:29;;;;;;;16.15;9.23;;;8.10;99.90;;;;;;5050946;28;20069;-79
2022/11/17 13:14:15;;;;;;;15.13;9.13;;;8.10;99.90;;;;;;5057778;28;20517;-79
2022/11/17 13:16:45;;;;;;;18.23;10.13;;;8.20;99.90;;;;;;5042899;28;20124;-83
2022/11/17 13:19:41;;;;;;;16.95;9.10;;;8.20;99.90;;;;;;5044457;28;20490;-80
2022/11/17 13:22:09;;;;;;;19.92;10.20;;;8.20;99.90;;;;;;5025019;28;20139;-81
2022/11/17 13:24:37;;;;;;;15.80;9.18;;;8.10;99.90;;;;;;5029839;28;20060;-84
2022/11/17 13:27:06;;;;;;;14.70;8.60;;;8.20;99.90;;;;;;5032979;28;20045;-80
2022/11/17 13:29:32;;;;;;;16.45;9.52;;;8.20;99.90;;;;;;5046458;28;20052;-81
2022/11/17 13:32:27;;;;;;;16.30;9.55;;;8.10;99.90;;;;;;5060569;28;20059;-82
2022/11/17 13:34:59;;;;;;;22.05;11.18;;;8.10;99.90;;;;;;5049938;28;20069;-81